createdAt,value
2023-10-25T00:03:56.313Z,98971.84
2023-10-25T00:08:57.112Z,98972.47
2023-10-25T00:13:58.290Z,98972.47
2023-10-25T00:19:00.411Z,98982.53
2023-10-25T00:24:01.229Z,98991.13
2023-10-25T00:29:02.015Z,98989.44
2023-10-25T00:34:04.510Z,98992.81
2023-10-25T00:39:05.658Z,98996.28
2023-10-25T00:44:06.884Z,98992.66
2023-10-25T00:49:09.739Z,98993.88
2023-10-25T00:54:11.130Z,98993.66
2023-10-25T00:59:13.497Z,98997.72
2023-10-25T01:04:15.835Z,98993.72
2023-10-25T01:09:17.782Z,98999.63
2023-10-25T01:14:18.605Z,98993.94
2023-10-25T01:19:20.763Z,98998.06
2023-10-25T01:24:23.418Z,98993.28
2023-10-25T01:29:24.278Z,98990.97
2023-10-25T01:34:25.118Z,98983.13
2023-10-25T01:39:27.717Z,98987.34
2023-10-25T01:44:28.569Z,98998.72
2023-10-25T01:49:29.379Z,98993.50
2023-10-25T01:54:31.510Z,99001.97
2023-10-25T01:59:32.292Z,98997.88
2023-10-25T02:04:33.120Z,98998.28
2023-10-25T02:09:35.404Z,99007.75
2023-10-25T02:14:37.631Z,99008.25
2023-10-25T02:19:41.389Z,99019.34
2023-10-25T02:24:43.751Z,99008.69
2023-10-25T02:29:44.794Z,99009.53
2023-10-25T02:34:45.705Z,99015.97
2023-10-25T02:39:47.868Z,99026.44
2023-10-25T02:44:48.664Z,99022.19
2023-10-25T02:49:49.460Z,99034.38
2023-10-25T02:54:51.615Z,99038.84
2023-10-25T02:59:53.272Z,99036.88
2023-10-25T03:04:54.277Z,99047.06
2023-10-25T03:09:56.441Z,99051.22
2023-10-25T03:14:57.256Z,99052.34
2023-10-25T03:19:58.068Z,99059.50
2023-10-25T03:25:00.594Z,99051.34
2023-10-25T03:30:01.437Z,99052.28
2023-10-25T03:35:02.239Z,99057.75
2023-10-25T03:40:05.132Z,99055.03
2023-10-25T03:45:07.675Z,99057.94
2023-10-25T03:50:09.382Z,99053.91
2023-10-25T03:55:12.855Z,99060.38
2023-10-25T04:00:15.079Z,99053.66
2023-10-25T04:05:16.076Z,99055.16
2023-10-25T04:10:18.401Z,99057.19
2023-10-25T04:15:19.209Z,99065.94
2023-10-25T04:20:19.974Z,99053.50
2023-10-25T04:25:22.984Z,99050.63
2023-10-25T04:30:24.014Z,99051.63
2023-10-25T04:35:24.900Z,99043.28
2023-10-25T04:40:27.116Z,99041.59
2023-10-25T04:45:30.113Z,99031.69
2023-10-25T04:50:35.674Z,99046.50
2023-10-25T04:55:38.507Z,99037.06
2023-10-25T05:00:39.489Z,99030.56
2023-10-25T05:05:40.622Z,99022.75
2023-10-25T05:10:43.395Z,99030.09
2023-10-25T05:15:44.751Z,99037.22
2023-10-25T05:20:46.044Z,99044.41
2023-10-25T05:25:48.824Z,99038.84
2023-10-25T05:30:52.104Z,99037.09
2023-10-25T05:35:53.404Z,99049.88
2023-10-25T05:40:56.137Z,99048.16
2023-10-25T05:45:58.066Z,99053.22
2023-10-25T05:51:05.261Z,99047.22
2023-10-25T05:56:08.422Z,99060.94
2023-10-25T06:01:11.378Z,99057.59
2023-10-25T06:06:14.663Z,99063.53
2023-10-25T06:11:18.536Z,99066.06
2023-10-25T06:16:19.477Z,99056.28
2023-10-25T06:21:20.381Z,99064.16
2023-10-25T06:26:22.674Z,99065.31
2023-10-25T06:31:23.555Z,99065.38
2023-10-25T06:36:25.058Z,99066.06
2023-10-25T06:41:28.069Z,99080.22
2023-10-25T06:46:29.454Z,99095.16
2023-10-25T06:51:30.885Z,99091.63
2023-10-25T06:56:34.426Z,99095.50
2023-10-25T07:01:39.265Z,99092.81
2023-10-25T07:06:41.435Z,99086.91
2023-10-25T07:11:45.680Z,99090.97
2023-10-25T07:16:46.804Z,99094.94
2023-10-25T07:21:47.775Z,99103.69
2023-10-25T07:26:49.996Z,99105.88
2023-10-25T07:31:50.974Z,99099.53
2023-10-25T07:36:51.825Z,99105.88
2023-10-25T07:41:53.982Z,99104.56
2023-10-25T07:46:54.947Z,99102.47
2023-10-25T07:51:56.428Z,99100.31
2023-10-25T08:02:02.409Z,99084.41
2023-10-25T08:07:03.241Z,99091.31
2023-10-25T08:12:06.003Z,99086.69
2023-10-25T08:17:06.915Z,99081.53
2023-10-25T08:22:07.883Z,99090.97
2023-10-25T08:27:10.209Z,99076.44
2023-10-25T08:32:11.015Z,99074.78
2023-10-25T08:37:11.957Z,99077.81
2023-10-25T08:42:14.312Z,99085.66
2023-10-25T08:47:15.735Z,99083.56
2023-10-25T08:52:24.185Z,99078.72
2023-10-25T08:57:26.615Z,99083.19
2023-10-25T09:02:27.571Z,99076.66
2023-10-25T09:07:29.548Z,99075.38
2023-10-25T09:12:33.643Z,99070.66
2023-10-25T09:17:34.617Z,99070.47
2023-10-25T09:22:35.558Z,99069.38
2023-10-25T09:27:44.365Z,99063.00
2023-10-25T09:32:45.310Z,99061.16
2023-10-25T09:37:46.267Z,99068.59
2023-10-25T09:42:53.799Z,99063.03
2023-10-25T09:47:57.037Z,99065.97
2023-10-25T09:53:06.435Z,99057.91
2023-10-25T09:58:11.936Z,99057.47
2023-10-25T10:03:24.311Z,99053.63
2023-10-25T10:08:32.471Z,99045.19
2023-10-25T10:13:34.664Z,99029.84
2023-10-25T10:18:36.812Z,99027.03
2023-10-25T10:23:40.005Z,99019.78
2023-10-25T10:28:44.076Z,99009.28
2023-10-25T10:33:46.578Z,98997.91
2023-10-25T10:39:14.984Z,99001.03
2023-10-25T10:44:17.264Z,98988.19
2023-10-25T10:49:20.761Z,98977.81
2023-10-25T10:54:21.554Z,98975.63
2023-10-25T10:59:25.677Z,98966.09
2023-10-25T11:04:26.866Z,98952.88
2023-10-25T11:09:27.799Z,98946.03
2023-10-25T11:14:30.094Z,98943.19
2023-10-25T11:19:34.666Z,98940.13
2023-10-25T11:24:37.196Z,98931.94
2023-10-25T11:29:40.009Z,98914.03
2023-10-25T11:34:47.378Z,98907.16
2023-10-25T11:39:58.768Z,98906.47
2023-10-25T11:45:02.617Z,98906.13
2023-10-25T11:50:04.500Z,98900.16
2023-10-25T11:55:05.894Z,98895.09
2023-10-25T12:00:10.269Z,98891.06
2023-10-25T12:05:15.178Z,98885.44
2023-10-25T12:10:17.386Z,98881.03
2023-10-25T12:15:19.576Z,98868.44
2023-10-25T12:20:27.826Z,98857.44
2023-10-25T12:25:29.455Z,98864.94
2023-10-25T12:30:31.791Z,98853.22
2023-10-25T12:35:32.648Z,98838.16
2023-10-25T12:40:33.470Z,98836.22
2023-10-25T12:45:35.675Z,98824.78
2023-10-25T12:50:36.811Z,98814.19
2023-10-25T12:55:37.640Z,98807.28
2023-10-25T13:00:39.849Z,98803.97
2023-10-25T13:05:40.759Z,98797.25
2023-10-25T13:10:41.641Z,98793.97
2023-10-25T13:15:43.949Z,98795.31
2023-10-25T13:20:44.827Z,98794.09
2023-10-25T13:25:45.643Z,98784.06
2023-10-25T13:30:47.930Z,98780.94
2023-10-25T13:35:49.406Z,98774.59
2023-10-25T13:40:50.866Z,98758.13
2023-10-25T13:45:53.248Z,98737.47
2023-10-25T13:50:54.219Z,98732.53
2023-10-25T13:55:55.189Z,98736.63
2023-10-25T14:00:59.392Z,98723.56
2023-10-25T14:06:04.652Z,98712.00
2023-10-25T14:11:05.554Z,98699.25
2023-10-25T14:16:11.826Z,98693.53
2023-10-25T14:21:17.024Z,98692.72
2023-10-25T14:26:20.099Z,98673.72
2023-10-25T14:31:22.317Z,98683.19
2023-10-25T14:36:23.246Z,98670.44
2023-10-25T14:41:24.173Z,98667.41
2023-10-25T14:46:28.453Z,98653.59
2023-10-25T14:51:29.296Z,98653.00
2023-10-25T14:56:30.190Z,98654.69
2023-10-25T15:01:32.362Z,98656.59
2023-10-25T15:06:33.203Z,98657.34
2023-10-25T15:11:34.103Z,98642.47
2023-10-25T15:16:36.543Z,98634.81
2023-10-25T15:21:37.405Z,98620.41
2023-10-25T15:26:38.189Z,98628.03
2023-10-25T15:31:40.416Z,98622.28
2023-10-25T15:36:41.695Z,98614.31
2023-10-25T15:41:44.142Z,98621.75
2023-10-25T15:46:46.529Z,98622.63
2023-10-25T15:51:47.353Z,98612.44
2023-10-25T15:56:52.140Z,98605.41
2023-10-25T16:02:08.973Z,98601.09
2023-10-25T16:07:10.933Z,98595.94
2023-10-25T16:12:12.213Z,98588.00
2023-10-25T16:17:14.477Z,98585.72
2023-10-25T16:22:19.221Z,98583.59
2023-10-25T16:27:20.372Z,98575.09
2023-10-25T16:32:22.604Z,98573.59
2023-10-25T16:37:26.790Z,98565.88
2023-10-25T16:42:27.871Z,98560.97
2023-10-25T16:47:30.046Z,98560.97
2023-10-25T16:52:32.658Z,98557.69
2023-10-25T16:57:33.551Z,98554.13
2023-10-25T17:02:35.740Z,98545.41
2023-10-25T17:07:36.701Z,98542.84
2023-10-25T17:12:37.674Z,98536.19
2023-10-25T17:17:39.901Z,98535.28
2023-10-25T17:22:41.078Z,98528.28
2023-10-25T17:27:42.691Z,98524.50
2023-10-25T17:32:46.600Z,98526.00
2023-10-25T17:37:47.501Z,98524.13
2023-10-25T17:42:48.362Z,98525.56
2023-10-25T17:47:51.537Z,98521.88
2023-10-25T17:52:52.549Z,98518.59
2023-10-25T17:57:53.323Z,98515.00
2023-10-25T18:02:55.519Z,98520.19
2023-10-25T18:07:56.448Z,98531.09
2023-10-25T18:12:57.267Z,98527.47
2023-10-25T18:18:00.271Z,98536.50
2023-10-25T18:23:01.776Z,98522.09
2023-10-25T18:28:03.156Z,98513.38
2023-10-25T18:33:05.458Z,98503.41
2023-10-25T18:38:08.783Z,98500.88
2023-10-25T18:43:09.776Z,98499.34
2023-10-25T18:48:12.046Z,98489.00
2023-10-25T18:53:13.097Z,98484.78
2023-10-25T18:58:17.704Z,98472.78
2023-10-25T19:03:20.474Z,98464.94
2023-10-25T19:08:25.553Z,98457.63
2023-10-25T19:13:29.410Z,98452.44
2023-10-25T19:18:34.033Z,98448.91
2023-10-25T19:23:36.355Z,98449.78
2023-10-25T19:28:37.403Z,98439.94
2023-10-25T19:33:41.523Z,98418.25
2023-10-25T19:38:42.828Z,98411.25
2023-10-25T19:43:43.737Z,98403.53
2023-10-25T19:48:45.933Z,98384.06
2023-10-25T19:53:46.911Z,98382.94
2023-10-25T19:58:49.209Z,98382.72
2023-10-25T20:03:52.655Z,98376.75
2023-10-25T20:08:53.616Z,98361.94
2023-10-25T20:13:54.498Z,98347.91
2023-10-25T20:18:57.062Z,98338.91
2023-10-25T20:24:01.563Z,98333.75
2023-10-25T20:29:03.157Z,98331.00
2023-10-25T20:34:05.436Z,98324.03
2023-10-25T20:39:06.374Z,98318.63
2023-10-25T20:44:07.320Z,98314.19
2023-10-25T20:49:09.509Z,98299.03
2023-10-25T20:54:10.341Z,98293.25
2023-10-25T20:59:11.392Z,98292.47
2023-10-25T21:04:13.644Z,98276.66
2023-10-25T21:09:14.582Z,98271.59
2023-10-25T21:14:15.944Z,98266.91
2023-10-25T21:19:18.069Z,98270.25
2023-10-25T21:24:19.024Z,98265.47
2023-10-25T21:29:19.935Z,98254.09
2023-10-25T21:34:22.111Z,98267.31
2023-10-25T21:39:22.982Z,98250.75
2023-10-25T21:44:23.867Z,98252.78
2023-10-25T21:49:26.305Z,98237.38
2023-10-25T21:54:27.182Z,98231.75
2023-10-25T21:59:48.206Z,98228.56
2023-10-25T22:04:50.211Z,98226.72
2023-10-25T22:09:51.010Z,98207.72
2023-10-25T22:14:51.860Z,98200.66
2023-10-25T22:19:54.060Z,98188.16
2023-10-25T22:24:54.857Z,98189.72
2023-10-25T22:29:55.659Z,98184.59
2023-10-25T22:34:58.241Z,98170.06
2023-10-25T22:40:01.360Z,98168.97
2023-10-25T22:45:02.213Z,98163.34
2023-10-25T22:50:04.677Z,98167.72
2023-10-25T22:55:06.101Z,98156.16
2023-10-25T23:00:08.235Z,98146.00
2023-10-25T23:05:10.734Z,98139.06
2023-10-25T23:10:11.742Z,98140.94
2023-10-25T23:15:12.653Z,98138.50
2023-10-25T23:20:14.887Z,98130.25
2023-10-25T23:25:15.679Z,98122.59
2023-10-25T23:30:17.003Z,98112.94
2023-10-25T23:35:19.185Z,98104.34
2023-10-25T23:40:19.931Z,98105.56
2023-10-25T23:45:20.732Z,98095.34
2023-10-25T23:50:22.843Z,98099.09
2023-10-25T23:55:23.628Z,98092.19
